• Join FlightAware (Why Join?)
  • Login
  • US Flag 
10:19AM EST


 

Airport Tracker/Info


-or-


 

Live Flight TrackerFlight Track Log ✈ EJA122 ✈ 10-Jun-2013 ✈ KBUR - KOAK

Flight Track Log - Related Links

Times and Time Zones

All times are in EDT time to prevent confusion due to time zone crossing. See the EJA122 flight status page for this flight to view local times or setup timezone preferences in your user account.

Time Position Orientation Groundspeed Altitude Reporting Facility
EDT Latitude Longitude Course Direction KTS MPH feet Rate Location/Type
01:40PM 34.1667 -118.3667 232° Southwest 204 235 2,800  Level Southern California TRACON
01:41PM 34.1331 -118.4194 232° Southwest 207 238 6,300 2,820 Climbing Los Angeles Center
01:42PM 34.1319 -118.4931 269° West 220 253 9,100 2,760 Climbing Los Angeles Center
01:43PM 34.1961 -118.5558 321° Northwest 262 302 12,100 2,460 Climbing Los Angeles Center
01:44PM 34.2692 -118.5928 337° Northwest 282 325 14,200 1,740 Climbing Los Angeles Center
01:45PM 34.3467 -118.6314 338° Northwest 301 346 15,800 1,560 Climbing Los Angeles Center
01:46PM 34.4322 -118.6736 338° Northwest 329 379 17,500 1,680 Climbing Los Angeles Center
01:47PM 34.5200 -118.7172 338° Northwest 340 391 19,300 1,560 Climbing Los Angeles Center
01:48PM 34.6114 -118.7636 337° Northwest 357 411 20,800 1,620 Climbing Los Angeles Center
01:49PM 34.7233 -118.8222 337° Northwest 364 419 22,700 1,620 Climbing Los Angeles Center
01:50PM 34.8164 -118.8767 334° Northwest 371 427 24,200 1,440 Climbing Los Angeles Center
01:51PM 34.8969 -118.9533 322° Northwest 368 423 25,700 1,440 Climbing Los Angeles Center
01:52PM 34.9839 -119.0369 322° Northwest 365 420 27,200 1,080 Climbing Los Angeles Center
01:53PM 35.0653 -119.1169 321° Northwest 374 430 28,000 360 Climbing Los Angeles Center
01:54PM 35.1528 -119.2025 321° Northwest 401 461 28,000  Level Los Angeles Center
01:55PM 35.2447 -119.2928 321° Northwest 420 483 28,000  Level Los Angeles Center
01:56PM 35.3400 -119.3853 322° Northwest 435 501 28,000  Level Los Angeles Center
01:57PM 35.4550 -119.4989 321° Northwest 439 505 28,000  Level Los Angeles Center
01:58PM 35.5506 -119.5942 321° Northwest 445 512 28,000  Level Los Angeles Center
01:59PM 35.6058 -119.6500 321° Northwest 450 518 28,000  Level Oakland Center
01:59PM 35.6472 -119.6914 321° Northwest 450 518 28,000  Level Los Angeles Center
02:00PM 35.7428 -119.7869 321° Northwest 448 516 28,000  Level Los Angeles Center
02:02PM 35.8575 -119.9028 321° Northwest 447 514 28,000  Level Los Angeles Center
02:02PM 35.8925 -119.9381 321° Northwest 446 513 28,000  Level Oakland Center
02:03PM 35.9922 -120.0367 321° Northwest 457 526 28,000  Level Oakland Center
02:04PM 36.1111 -120.1581 320° Northwest 464 534 28,000  Level Oakland Center
02:05PM 36.2106 -120.2569 321° Northwest 462 532 28,000  Level Oakland Center
02:06PM 36.3100 -120.3606 320° Northwest 467 537 28,000 -780 Level Oakland Center
02:07PM 36.4069 -120.4619 320° Northwest 461 531 26,500 -1,800 Descending Oakland Center
02:08PM 36.4986 -120.5514 322° Northwest 429 494 24,400 -2,040 Descending Oakland Center
02:09PM 36.5897 -120.6464 320° Northwest 428 493 22,400 -1,980 Descending Oakland Center
02:10PM 36.6806 -120.7422 320° Northwest 430 495 20,400 -1,200 Descending Oakland Center
02:11PM 36.7661 -120.8333 320° Northwest 414 476 20,000 -240 Descending Oakland Center
02:12PM 36.8622 -120.9419 318° Northwest 414 476 20,000 -720 Level Oakland Center
02:13PM 36.9453 -121.0408 316° Northwest 413 475 18,600 -1,620 Descending Oakland Center
02:14PM 37.0261 -121.1347 317° Northwest 401 461 16,700 -1,920 Descending Oakland Center
02:15PM 37.1053 -121.2217 319° Northwest 386 444 14,800 -1,800 Descending Oakland Center
02:16PM 37.1808 -121.3125 316° Northwest 378 435 13,100 -1,680 Descending Oakland Center
02:17PM 37.2528 -121.3944 318° Northwest 359 413 11,400 -1,560 Descending Oakland Center
02:18PM 37.3175 -121.4714 317° Northwest 322 371 10,000 -1,560 Descending Oakland Center
02:19PM 37.3839 -121.5483 317° Northwest 273 314 8,300 -1,620 Descending Oakland Center
02:20PM 37.4378 -121.6103 318° Northwest 263 303 6,800 -1,140 Descending Oakland Center
02:21PM 37.5000 -121.6833 317° Northwest 262 302 6,000 -900 Descending Northern Cal TRACON
02:23PM 37.5333 -121.7667 297° West 268 308 5,000 -540 Descending Northern Cal TRACON
02:24PM 37.5833 -121.8333 313° West 245 282 4,900 -540 Descending Northern Cal TRACON
02:24PM 37.6167 -121.9167 297° West 254 292 4,000 -780 Descending Northern Cal TRACON
02:25PM 37.6500 -121.9667 310° West 212 244 3,500 -600 Descending Northern Cal TRACON
02:26PM 37.6667 -122.0333 288° West 192 221 2,800 -900 Descending Northern Cal TRACON
02:27PM 37.6833 -122.1000 288° West 192 221 1,800 -960 Descending Northern Cal TRACON
02:28PM 37.7000 -122.1500 293° West 163 188 1,000 -840 Descending Northern Cal TRACON
02:29PM 37.7167 -122.1833 302° West 118 136 300 -720 Descending Northern Cal TRACON
02:32PM 37.7167 -122.2167 270° West  Level FlightAware Approximate